Time;durP1;ratioP1;P1;durP2;ratioP2;P2;SDS_P1;SDS_P2;PMS_P1;PMS_P2;Temp;Humidity;BMP_temperature;BMP_pressure;BME280_temperature;BME280_humidity;BME280_pressure;Samples;Min_cycle;Max_cycle;Signal;HPM_P1;HPM_P2
2022/06/17 00:01:58;;;;;;;;;;;12.60;99.00;;;;;;5061543;28;20044;-61
2022/06/17 00:04:24;;;;;;;4.40;2.05;;;12.60;99.30;;;;;;5061217;28;19923;-62
2022/06/17 00:07:00;;;;;;;;;;;12.60;99.10;;;;;;5062072;28;20132;-61
2022/06/17 00:09:29;;;;;;;3.25;1.90;;;12.50;99.10;;;;;;5062417;28;20377;-61
2022/06/17 00:11:55;;;;;;;5.78;2.22;;;12.40;99.30;;;;;;5061950;28;20041;-61
2022/06/17 00:14:23;;;;;;;;;;;12.40;99.50;;;;;;5062424;28;20091;-62
2022/06/17 00:16:49;;;;;;;9.70;2.05;;;12.40;99.70;;;;;;5059338;28;19970;-62
2022/06/17 00:19:18;;;;;;;5.78;2.30;;;12.40;99.60;;;;;;5046127;28;20037;-62
2022/06/17 00:21:46;;;;;;;3.28;2.00;;;12.40;99.60;;;;;;5047484;28;20123;-62
2022/06/17 00:24:17;;;;;;;3.80;2.20;;;12.40;99.60;;;;;;5049405;28;20040;-63
2022/06/17 00:26:44;;;;;;;4.03;2.10;;;12.40;99.50;;;;;;5048341;28;20037;-62
2022/06/17 00:29:12;;;;;;;6.85;2.67;;;12.40;99.40;;;;;;5048702;28;20036;-63
2022/06/17 00:31:38;;;;;;;3.08;2.22;;;12.40;99.50;;;;;;5047531;28;20083;-65
2022/06/17 00:34:03;;;;;;;;;;;12.20;99.50;;;;;;5048937;28;20060;-62
2022/06/17 00:36:29;;;;;;;6.13;2.35;;;12.20;99.80;;;;;;5048882;28;19974;-62
2022/06/17 00:38:54;;;;;;;;;;;12.20;99.80;;;;;;5049926;28;20036;-62
2022/06/17 00:41:35;;;;;;;5.97;2.38;;;12.20;99.90;;;;;;5050372;28;20373;-59
2022/06/17 00:44:28;;;;;;;5.75;1.95;;;12.20;99.90;;;;;;5050652;28;20401;-60
2022/06/17 00:46:57;;;;;;;3.67;1.98;;;12.20;99.70;;;;;;5029769;28;20429;-59
2022/06/17 00:49:43;;;;;;;5.63;2.22;;;12.20;99.90;;;;;;5029423;28;20053;-63
2022/06/17 00:52:23;;;;;;;10.32;2.88;;;12.20;99.90;;;;;;5046022;28;20535;-62
2022/06/17 00:55:01;;;;;;;9.88;2.17;;;12.10;99.90;;;;;;5031219;28;20081;-62
2022/06/17 00:57:32;;;;;;;8.15;2.33;;;12.10;99.90;;;;;;5048788;28;20045;-61
2022/06/17 01:00:25;;;;;;;6.07;2.35;;;12.10;99.90;;;;;;5048041;28;20130;-61
2022/06/17 01:02:53;;;;;;;9.30;2.00;;;12.00;99.90;;;;;;5045254;28;20148;-61
2022/06/17 01:05:22;;;;;;;9.65;2.70;;;12.00;99.90;;;;;;5047973;28;20047;-61
2022/06/17 01:08:12;;;;;;;7.43;2.28;;;12.00;99.90;;;;;;5047936;28;20421;-60
2022/06/17 01:10:45;;;;;;;4.35;2.38;;;12.00;99.90;;;;;;5048299;28;20041;-60
2022/06/17 01:13:11;;;;;;;4.38;2.15;;;11.90;99.90;;;;;;5046495;28;20555;-59
2022/06/17 01:15:39;;;;;;;6.65;2.25;;;11.90;99.90;;;;;;5047723;28;20099;-61
2022/06/17 01:18:06;;;;;;;7.03;2.30;;;11.90;99.90;;;;;;5047761;28;20123;-61
2022/06/17 01:20:35;;;;;;;7.28;2.10;;;11.90;99.90;;;;;;5047272;28;20489;-62
2022/06/17 01:23:08;;;;;;;3.00;1.80;;;11.90;99.90;;;;;;5047358;28;20045;-62
2022/06/17 01:25:41;;;;;;;5.60;1.88;;;11.80;99.90;;;;;;5047653;28;20416;-61
2022/06/17 01:28:10;;;;;;;7.60;2.08;;;11.80;99.90;;;;;;5028193;28;20100;-62
2022/06/17 01:30:40;;;;;;;5.80;2.40;;;11.70;99.90;;;;;;5041695;28;20052;-61
2022/06/17 01:33:14;;;;;;;3.72;2.05;;;11.80;99.90;;;;;;5047498;28;20183;-62
2022/06/17 01:35:53;;;;;;;3.70;1.92;;;11.80;99.90;;;;;;5047566;28;20045;-61
2022/06/17 01:38:21;;;;;;;5.50;2.22;;;11.80;99.90;;;;;;5044388;28;20036;-61
2022/06/17 01:40:48;;;;;;;3.05;1.90;;;11.90;99.90;;;;;;5037485;28;20066;-62
2022/06/17 01:43:16;;;;;;;2.97;1.98;;;11.80;99.90;;;;;;5046837;28;20117;-62
2022/06/17 01:45:53;;;;;;;3.60;2.00;;;11.80;99.90;;;;;;5047399;28;20557;-62
2022/06/17 01:48:19;;;;;;;2.83;1.90;;;11.70;99.90;;;;;;5045785;28;20037;-61
2022/06/17 01:50:47;;;;;;;5.90;2.42;;;11.70;99.90;;;;;;5034025;28;20045;-62
2022/06/17 01:53:18;;;;;;;4.78;2.30;;;11.70;99.90;;;;;;5045801;28;20044;-61
2022/06/17 01:55:50;;;;;;;2.80;1.65;;;11.70;99.90;;;;;;5046895;28;20128;-62
2022/06/17 01:58:41;;;;;;;4.15;2.42;;;11.70;99.90;;;;;;5046689;28;20060;-62
2022/06/17 02:01:09;;;;;;;4.13;1.95;;;11.60;99.90;;;;;;5045815;28;20044;-61
2022/06/17 02:03:44;;;;;;;3.58;2.53;;;11.60;99.90;;;;;;5031494;28;20048;-61
2022/06/17 02:06:23;;;;;;;3.65;2.28;;;11.50;99.90;;;;;;5038375;28;20076;-63
2022/06/17 02:08:51;;;;;;;4.63;2.33;;;11.40;99.90;;;;;;5026497;28;20050;-61
2022/06/17 02:11:17;;;;;;;5.32;2.20;;;11.40;99.90;;;;;;5027136;28;20049;-61
2022/06/17 02:13:43;;;;;;;;;;;11.40;99.90;;;;;;5045889;28;20036;-60
2022/06/17 02:16:09;;;;;;;4.13;2.00;;;11.40;99.90;;;;;;5046636;28;19920;-62
2022/06/17 02:18:36;;;;;;;2.50;1.90;;;11.30;99.90;;;;;;5047642;28;20048;-62
2022/06/17 02:21:07;;;;;;;2.40;2.00;;;11.30;99.90;;;;;;5046957;28;20501;-62
2022/06/17 02:23:34;;;;;;;6.07;2.58;;;11.30;99.90;;;;;;5051379;28;20040;-62
2022/06/17 02:26:01;;;;;;;2.75;1.90;;;11.30;99.90;;;;;;5036387;28;20114;-62
2022/06/17 02:28:29;;;;;;;3.08;2.20;;;11.30;99.90;;;;;;5042548;28;20557;-61
2022/06/17 02:30:56;;;;;;;4.60;2.45;;;11.30;99.90;;;;;;5046065;28;20116;-62
2022/06/17 02:33:23;;;;;;;7.63;2.50;;;11.30;99.90;;;;;;5046694;28;20037;-63
2022/06/17 02:35:57;;;;;;;8.25;2.70;;;11.30;99.90;;;;;;5046281;28;20055;-62
2022/06/17 02:38:27;;;;;;;7.57;2.58;;;11.30;99.90;;;;;;5046224;28;20141;-62
2022/06/17 02:40:57;;;;;;;3.47;2.20;;;11.30;99.90;;;;;;5046328;28;20081;-62
2022/06/17 02:43:28;;;;;;;5.93;2.47;;;11.30;99.90;;;;;;5045934;28;20379;-61
2022/06/17 02:46:10;;;;;;;3.55;2.00;;;11.30;99.90;;;;;;5044769;28;20789;-61
2022/06/17 02:48:45;;;;;;;3.20;2.22;;;11.30;99.90;;;;;;5046150;28;20044;-62
2022/06/17 02:51:12;;;;;;;4.75;1.83;;;11.30;99.90;;;;;;5045367;28;20033;-61
2022/06/17 02:53:39;;;;;;;4.45;1.80;;;11.20;99.90;;;;;;5046617;28;20120;-62
2022/06/17 02:56:18;;;;;;;3.03;1.98;;;11.20;99.90;;;;;;5046114;28;20157;-61
2022/06/17 02:58:47;;;;;;;4.57;2.42;;;11.10;99.90;;;;;;5046272;28;20049;-62
2022/06/17 03:01:19;;;;;;;6.03;1.90;;;11.20;99.90;;;;;;5045602;28;20124;-61
2022/06/17 03:03:46;;;;;;;4.03;2.00;;;11.20;99.90;;;;;;5045762;28;20033;-65
2022/06/17 03:06:19;;;;;;;3.28;2.10;;;11.20;99.90;;;;;;5045581;28;20072;-62
2022/06/17 03:08:49;;;;;;;3.00;2.08;;;11.20;99.90;;;;;;5045746;28;20037;-62
2022/06/17 03:11:16;;;;;;;5.07;2.38;;;11.10;99.90;;;;;;5045807;28;20045;-62
2022/06/17 03:13:47;;;;;;;3.83;2.10;;;11.10;99.90;;;;;;5045800;28;20040;-62
2022/06/17 03:16:15;;;;;;;4.47;1.90;;;11.20;99.90;;;;;;5045906;28;20127;-62
2022/06/17 03:18:42;;;;;;;2.55;1.83;;;11.20;99.90;;;;;;5045996;28;20095;-62
2022/06/17 03:21:08;;;;;;;2.95;1.90;;;11.20;99.90;;;;;;5045478;28;20488;-62
2022/06/17 03:23:39;;;;;;;;;;;11.20;99.90;;;;;;5045510;28;20037;-60
2022/06/17 03:26:11;;;;;;;6.28;2.78;;;11.20;99.90;;;;;;5045720;28;19921;-61
2022/06/17 03:28:44;;;;;;;3.63;2.00;;;11.20;99.90;;;;;;5045782;28;20444;-61
2022/06/17 03:31:14;;;;;;;6.03;2.00;;;11.20;99.90;;;;;;5035668;28;20768;-61
2022/06/17 03:34:08;;;;;;;4.25;2.20;;;11.10;99.90;;;;;;5060049;28;20040;-61
2022/06/17 03:36:59;;;;;;;3.45;2.00;;;11.10;99.90;;;;;;5024737;28;20091;-59
2022/06/17 03:39:39;;;;;;;4.93;1.88;;;11.30;99.90;;;;;;5040929;28;20573;-60
2022/06/17 03:42:15;;;;;;;5.90;2.35;;;11.50;99.90;;;;;;5047178;28;20141;-60
2022/06/17 03:45:03;;;;;;;4.60;2.28;;;11.60;99.90;;;;;;5047649;28;20852;-60
2022/06/17 03:47:37;;;;;;;7.72;2.55;;;11.70;99.90;;;;;;5047483;28;20060;-60
2022/06/17 03:50:08;;;;;;;5.63;1.98;;;11.80;99.90;;;;;;5047255;28;20045;-60
2022/06/17 03:52:58;;;;;;;7.85;3.08;;;11.90;99.90;;;;;;5047414;28;20401;-60
2022/06/17 03:55:24;;;;;;;4.22;2.08;;;12.00;99.90;;;;;;5051227;28;20497;-60
2022/06/17 03:57:53;;;;;;;4.35;1.98;;;12.00;99.90;;;;;;5050690;28;20040;-60
2022/06/17 04:00:27;;;;;;;5.25;2.00;;;11.90;99.90;;;;;;5050016;28;20072;-60
2022/06/17 04:02:54;;;;;;;3.35;2.00;;;12.00;99.90;;;;;;5050850;28;20041;-60
2022/06/17 04:05:21;;;;;;;4.72;2.17;;;12.00;99.90;;;;;;5050922;28;20116;-60
2022/06/17 04:07:47;;;;;;;2.03;1.83;;;12.00;99.90;;;;;;5050871;28;20045;-60
2022/06/17 04:10:14;;;;;;;;;;;12.00;99.90;;;;;;5051264;28;20107;-60
2022/06/17 04:12:45;;;;;;;3.00;1.90;;;12.00;99.90;;;;;;5050352;28;20419;-60
2022/06/17 04:15:41;;;;;;;5.40;2.30;;;12.10;99.90;;;;;;5045443;28;20043;-60
2022/06/17 04:18:08;;;;;;;5.00;2.22;;;12.20;99.90;;;;;;5046122;28;20052;-60
2022/06/17 04:20:39;;;;;;;5.30;1.88;;;12.30;99.90;;;;;;5045377;28;20127;-53
2022/06/17 04:23:25;;;;;;;4.13;2.30;;;12.40;99.90;;;;;;5049003;28;20037;-60
2022/06/17 04:26:06;;;;;;;3.92;2.00;;;12.50;99.90;;;;;;5049488;28;20068;-60
2022/06/17 04:28:48;;;;;;;7.82;2.50;;;12.40;99.90;;;;;;5049921;28;20044;-60
2022/06/17 04:31:17;;;;;;;4.00;1.92;;;12.50;99.90;;;;;;5041339;28;20041;-59
2022/06/17 04:33:57;;;;;;;4.70;2.10;;;12.80;99.90;;;;;;5048116;28;20493;-59
2022/06/17 04:36:42;;;;;;;2.70;1.77;;;13.10;99.30;;;;;;5048402;28;20049;-59
2022/06/17 04:39:16;;;;;;;3.88;2.20;;;13.40;99.50;;;;;;5048143;28;20048;-59
2022/06/17 04:41:43;;;;;;;2.60;1.80;;;13.80;98.30;;;;;;5045074;28;20231;-59
2022/06/17 04:44:12;;;;;;;7.32;1.75;;;13.90;98.20;;;;;;5039967;28;20120;-59
2022/06/17 04:47:05;;;;;;;4.50;1.85;;;13.90;98.00;;;;;;5039667;28;20091;-59
2022/06/17 04:49:36;;;;;;;2.95;1.83;;;13.90;98.20;;;;;;5041590;28;20169;-59
2022/06/17 04:52:07;;;;;;;6.72;2.00;;;13.80;99.70;;;;;;5038667;28;20033;-56
2022/06/17 04:54:34;;;;;;;4.32;2.00;;;13.70;99.20;;;;;;5038302;28;20143;-60
2022/06/17 04:57:03;;;;;;;4.18;1.83;;;13.80;99.90;;;;;;5037360;28;20072;-55
2022/06/17 04:59:35;;;;;;;5.13;2.00;;;14.00;99.70;;;;;;5043556;28;20069;-56
2022/06/17 05:02:11;;;;;;;2.65;2.05;;;14.10;98.70;;;;;;5044382;28;20516;-58
2022/06/17 05:04:37;;;;;;;4.15;2.10;;;14.10;98.70;;;;;;5039096;28;20041;-56
2022/06/17 05:07:03;;;;;;;;;;;14.00;98.80;;;;;;5039053;28;20542;-58
2022/06/17 05:09:37;;;;;;;4.78;2.00;;;14.00;98.80;;;;;;5038493;28;19917;-60
2022/06/17 05:12:08;;;;;;;3.28;1.98;;;14.00;98.90;;;;;;5040735;28;20044;-60
2022/06/17 05:14:53;;;;;;;5.22;1.70;;;14.10;99.60;;;;;;5041539;28;20052;-59
2022/06/17 05:17:19;;;;;;;5.47;2.38;;;14.20;99.00;;;;;;5047338;28;20052;-59
2022/06/17 05:19:45;;;;;;;4.18;1.80;;;14.20;99.70;;;;;;5046768;28;20497;-58
2022/06/17 05:22:22;;;;;;;;;;;14.30;99.90;;;;;;5048253;28;20040;-58
2022/06/17 05:24:48;;;;;;;3.53;2.38;;;14.50;99.90;;;;;;5051903;28;19941;-62
2022/06/17 05:27:14;;;;;;;;;;;14.70;99.60;;;;;;5045542;28;20128;-61
2022/06/17 05:29:39;;;;;;;9.85;1.92;;;14.90;98.80;;;;;;5047234;28;20294;-62
2022/06/17 05:32:05;;;;;;;;;;;15.00;98.30;;;;;;5044131;28;20493;-59
2022/06/17 05:34:31;;;;;;;16.08;2.53;;;15.40;97.90;;;;;;5043603;28;20003;-58
2022/06/17 05:36:57;;;;;;;4.93;2.42;;;16.00;97.40;;;;;;5039610;28;20052;-60
2022/06/17 05:39:23;;;;;;;;;;;16.10;97.20;;;;;;5049144;28;20040;-60
2022/06/17 05:41:48;;;;;;;5.07;1.90;;;16.00;97.70;;;;;;5047560;28;19998;-61
2022/06/17 05:44:15;;;;;;;;;;;;;;;;;;5035546;28;20637;-53
2022/06/17 05:46:43;;;;;;;9.88;1.90;;;;;;;;;;5042672;28;19920;-61
2022/06/17 05:49:09;;;;;;;7.97;1.52;;;;;;;;;;5047492;28;20633;-62
2022/06/17 05:51:35;;;;;;;5.07;2.28;;;;;;;;;;5047540;28;20037;-60
2022/06/17 05:54:01;;;;;;;;;;;;;;;;;;5047545;28;20028;-59
2022/06/17 05:56:28;;;;;;;3.92;1.60;;;;;;;;;;5045101;28;20015;-59
2022/06/17 05:58:54;;;;;;;2.13;1.40;;;;;;;;;;5046587;28;20562;-59
2022/06/17 06:01:19;;;;;;;;;;;;;;;;;;5046174;28;20052;-57
2022/06/17 06:03:46;;;;;;;2.67;2.03;;;;;;;;;;5047408;28;19923;-61
2022/06/17 06:06:11;;;;;;;;;;;;;;;;;;5046515;28;20535;-60
2022/06/17 06:08:37;;;;;;;4.50;1.63;;;;;;;;;;5046214;28;19917;-58
2022/06/17 06:11:04;;;;;;;3.58;1.80;;;;;;;;;;5040946;28;20405;-58
2022/06/17 06:13:31;;;;;;;3.85;1.70;;;;;;;;;;5035552;28;20033;-58
2022/06/17 06:15:59;;;;;;;3.80;1.63;;;;;;;;;;5038256;28;20042;-58
2022/06/17 06:18:30;;;;;;;2.28;1.42;;;;;;;;;;5025415;28;20041;-56
2022/06/17 06:20:56;;;;;;;2.63;1.50;;;;;;;;;;5030236;28;20029;-59
2022/06/17 06:23:22;;;;;;;2.42;1.73;;;;;;;;;;5046245;28;20068;-58
2022/06/17 06:25:48;;;;;;;;;;;;;;;;;;5057415;28;20524;-58
2022/06/17 06:28:19;;;;;;;1.70;1.30;;;;;;;;;;5035407;28;19916;-58
2022/06/17 06:30:50;;;;;;;3.90;1.27;;;;;;;;;;5045942;28;20037;-56
2022/06/17 06:33:16;;;;;;;3.00;1.35;;;;;;;;;;5047362;28;20041;-58
2022/06/17 06:35:42;;;;;;;;;;;;;;;;;;5046962;28;20041;-59
2022/06/17 06:38:08;;;;;;;7.88;1.65;;;;;;;;;;5046626;28;19923;-57
2022/06/17 06:40:34;;;;;;;3.75;1.02;;;;;;;;;;5046964;28;20048;-59
2022/06/17 06:43:00;;;;;;;4.53;1.60;;;;;;;;;;5045973;28;20041;-56
2022/06/17 06:45:29;;;;;;;3.63;1.65;;;;;;;;;;5046206;28;20052;-56
2022/06/17 06:47:57;;;;;;;3.42;1.52;;;;;;;;;;5046150;28;20033;-57
2022/06/17 06:50:24;;;;;;;4.28;1.70;;;;;;;;;;5045891;28;20084;-59
2022/06/17 06:52:50;;;;;;;3.28;1.40;;;;;;;;;;5045262;28;20041;-58
2022/06/17 06:55:16;;;;;;;2.00;1.20;;;;;;;;;;5046697;28;20104;-59
2022/06/17 06:57:45;;;;;;;2.47;1.10;;;;;;;;;;5046890;28;20143;-58
2022/06/17 07:00:13;;;;;;;1.95;0.80;;;;;;;;;;5046094;28;20037;-58
2022/06/17 07:02:40;;;;;;;3.60;0.90;;;;;;;;;;5045667;28;20047;-58
2022/06/17 07:05:06;;;;;;;4.90;1.38;;;;;;;;;;5046492;28;20049;-57
2022/06/17 07:07:32;;;;;;;1.75;0.90;;;;;;;;;;5045969;28;20470;-57
2022/06/17 07:09:58;;;;;;;1.42;0.93;;;;;;;;;;5046270;28;20102;-58
2022/06/17 07:12:24;;;;;;;;;;;;;;;;;;5046591;28;20041;-59
2022/06/17 07:14:50;;;;;;;2.90;1.25;;;;;;;;;;5046408;28;19975;-59
2022/06/17 07:17:16;;;;;;;4.22;1.52;;;;;;;;;;5046426;28;20063;-58
2022/06/17 07:19:42;;;;;;;4.30;1.17;;;;;;;;;;5046243;28;20029;-59
2022/06/17 07:22:08;;;;;;;1.52;1.00;;;;;;;;;;5045592;28;20044;-59
2022/06/17 07:24:35;;;;;;;1.38;0.95;;;;;;;;;;5047095;28;20036;-59
2022/06/17 07:27:01;;;;;;;4.95;1.38;;;;;;;;;;5031211;28;20038;-58
2022/06/17 07:29:27;;;;;;;3.53;1.10;;;;;;;;;;5049563;28;20398;-60
2022/06/17 07:31:54;;;;;;;15.70;1.10;;;;;;;;;;5048945;28;20396;-59
2022/06/17 07:34:20;;;;;;;2.60;0.95;;;;;;;;;;5050330;28;20048;-60
2022/06/17 07:42:15;;;;;;;4.20;1.10;;;;;;;;;;5049614;28;20033;-60
2022/06/17 07:44:41;;;;;;;3.85;1.10;;;;;;;;;;5049989;28;20477;-60
2022/06/17 07:47:13;;;;;;;4.88;0.80;;;;;;;;;;5050799;28;20041;-60
2022/06/17 07:49:39;;;;;;;8.48;1.20;;;;;;;;;;5049749;28;20209;-60
2022/06/17 07:52:05;;;;;;;2.35;1.20;;;;;;;;;;5043338;28;20040;-61
2022/06/17 07:54:31;;;;;;;3.42;0.82;;;;;;;;;;5039792;28;20041;-60
2022/06/17 07:56:57;;;;;;;2.58;0.77;;;;;;;;;;5048638;28;20106;-60
2022/06/17 07:59:23;;;;;;;1.73;0.77;;;;;;;;;;5049711;28;20041;-60
2022/06/17 08:01:49;;;;;;;2.40;1.10;;;;;;;;;;5048338;28;20075;-60
2022/06/17 08:04:15;;;;;;;3.63;1.02;;;;;;;;;;5042616;28;20086;-60
2022/06/17 08:06:41;;;;;;;2.65;0.95;;;;;;;;;;5049496;28;20033;-60
2022/06/17 08:09:07;;;;;;;;;;;;;;;;;;5050376;28;20110;-60
2022/06/17 08:11:33;;;;;;;1.60;1.00;;;;;;;;;;5050739;28;19917;-60
2022/06/17 08:13:59;;;;;;;2.58;1.10;;;;;;;;;;5049962;28;20037;-60
2022/06/17 08:16:25;;;;;;;;;;;;;;;;;;5050281;28;20044;-60
2022/06/17 08:18:51;;;;;;;2.80;1.10;;;;;;;;;;5045216;28;19999;-60
2022/06/17 08:21:17;;;;;;;;;;;;;;;;;;5049735;28;20041;-60
2022/06/17 08:23:43;;;;;;;1.23;1.10;;;;;;;;;;5049178;28;19927;-57
2022/06/17 08:26:09;;;;;;;0.80;0.60;;;;;;;;;;5047275;28;20500;-59
2022/06/17 08:28:35;;;;;;;;;;;;;;;;;;5049356;28;20037;-60
2022/06/17 08:31:01;;;;;;;5.13;1.15;;;;;;;;;;5047161;28;20392;-58
2022/06/17 08:33:29;;;;;;;1.33;0.85;;;;;;;;;;5043043;28;20042;-59
2022/06/17 08:35:58;;;;;;;5.05;1.02;;;;;;;;;;5047184;28;20124;-60
2022/06/17 08:38:26;;;;;;;4.45;1.00;;;;;;;;;;5047618;28;20063;-62
2022/06/17 08:40:55;;;;;;;2.38;1.27;;;;;;;;;;5049150;28;20064;-59
2022/06/17 08:43:21;;;;;;;2.85;1.00;;;;;;;;;;5048696;28;20071;-59
2022/06/17 08:45:47;;;;;;;2.70;1.33;;;;;;;;;;5049530;28;20090;-59
2022/06/17 08:48:19;;;;;;;3.72;1.17;;;;;;;;;;5048016;28;20409;-56
2022/06/17 08:50:50;;;;;;;2.10;1.17;;;;;;;;;;5048879;28;20037;-57
2022/06/17 08:53:30;;;;;;;3.88;1.25;;;;;;;;;;5049056;28;20037;-58
2022/06/17 08:58:36;;;;;;;2.73;1.20;;;21.00;77.60;;;;;;5041110;27;20757;-59
2022/06/17 09:01:32;;;;;;;5.00;1.27;;;20.60;78.90;;;;;;5025219;28;20036;-59
2022/06/17 09:04:13;;;;;;;3.97;1.55;;;20.70;79.30;;;;;;5077129;28;20059;-58
2022/06/17 09:07:18;;;;;;;1.65;1.10;;;20.70;78.50;;;;;;5074914;28;20458;-59
2022/06/17 09:10:07;;;;;;;2.45;1.33;;;20.70;78.90;;;;;;5067525;28;20048;-59
2022/06/17 09:12:54;;;;;;;2.45;1.25;;;20.80;78.60;;;;;;5072500;28;20102;-59
2022/06/17 09:15:50;;;;;;;6.05;1.20;;;20.90;78.20;;;;;;5073611;28;20072;-59
2022/06/17 09:18:35;;;;;;;3.92;1.20;;;21.10;77.50;;;;;;5074141;28;20131;-59
2022/06/17 09:21:23;;;;;;;4.22;1.42;;;21.10;77.30;;;;;;5076001;28;20515;-61
2022/06/17 09:23:50;;;;;;;4.70;1.15;;;21.00;75.60;;;;;;5079867;28;20051;-60
2022/06/17 09:26:32;;;;;;;5.25;1.27;;;21.20;78.10;;;;;;5078126;28;20496;-60
2022/06/17 09:29:22;;;;;;;5.68;1.38;;;21.40;76.80;;;;;;5080250;28;20411;-59
2022/06/17 09:31:52;;;;;;;6.85;1.20;;;21.70;75.70;;;;;;5060026;28;20044;-60
2022/06/17 09:34:27;;;;;;;3.10;1.30;;;21.90;76.10;;;;;;5068268;28;20097;-61
2022/06/17 09:37:05;;;;;;;4.60;1.40;;;22.00;73.90;;;;;;5083846;28;20451;-60
2022/06/17 09:39:43;;;;;;;4.57;1.30;;;22.20;73.00;;;;;;5077064;28;20036;-60
2022/06/17 09:42:26;;;;;;;2.20;1.30;;;22.20;73.80;;;;;;5062660;28;20565;-60
2022/06/17 09:45:01;;;;;;;2.43;1.20;;;22.20;73.40;;;;;;5063348;28;20801;-60
2022/06/17 09:47:51;;;;;;;2.45;0.93;;;22.20;72.00;;;;;;5063074;28;20271;-60
2022/06/17 09:50:29;;;;;;;4.97;1.50;;;22.20;74.70;;;;;;5073725;28;20037;-60
2022/06/17 09:53:09;;;;;;;2.70;1.25;;;22.30;74.40;;;;;;5062586;28;20051;-60
2022/06/17 09:55:54;;;;;;;6.20;1.60;;;22.20;72.90;;;;;;5066102;28;20519;-60
2022/06/17 09:58:43;;;;;;;1.80;1.20;;;22.30;74.00;;;;;;5066226;28;20036;-60
2022/06/17 10:01:11;;;;;;;8.75;1.48;;;22.40;75.00;;;;;;5073699;28;20064;-60
2022/06/17 10:03:40;;;;;;;2.65;1.42;;;22.40;72.90;;;;;;5065842;28;20379;-60
2022/06/17 10:06:39;;;;;;;5.75;2.00;;;22.40;71.50;;;;;;5073083;28;20032;-60
2022/06/17 10:09:51;;;;;;;3.53;1.30;;;22.60;71.60;;;;;;5070759;28;20131;-60
2022/06/17 10:12:50;;;;;;;5.20;1.30;;;22.80;72.00;;;;;;5049868;28;20124;-61
2022/06/17 10:15:34;;;;;;;2.45;0.95;;;22.80;72.60;;;;;;5057784;28;20033;-60
2022/06/17 10:18:32;;;;;;;8.48;1.50;;;22.90;74.50;;;;;;5066067;28;20075;-61
2022/06/17 10:21:22;;;;;;;6.47;1.40;;;23.10;71.80;;;;;;5057898;28;20048;-60
2022/06/17 10:24:25;;;;;;;3.33;1.60;;;23.40;72.50;;;;;;5048075;28;20055;-60
2022/06/17 10:27:05;;;;;;;2.25;1.02;;;23.40;69.70;;;;;;5059146;28;20057;-60
2022/06/17 10:29:58;;;;;;;2.47;1.23;;;23.40;70.80;;;;;;5069831;28;20028;-61
2022/06/17 10:32:29;;;;;;;2.72;1.20;;;23.50;65.00;;;;;;5062255;28;20040;-61
2022/06/17 10:35:06;;;;;;;4.95;1.30;;;23.60;63.90;;;;;;5068251;28;20044;-60
2022/06/17 10:37:38;;;;;;;5.47;1.52;;;23.50;66.30;;;;;;5069938;28;20040;-64
2022/06/17 10:40:11;;;;;;;4.80;1.30;;;23.60;66.90;;;;;;5066588;28;20036;-62
2022/06/17 10:42:37;;;;;;;3.35;1.60;;;23.60;67.30;;;;;;5053066;28;20570;-60
2022/06/17 10:45:03;;;;;;;4.32;1.38;;;23.70;68.80;;;;;;5059789;28;20037;-61
2022/06/17 10:48:10;;;;;;;4.28;1.30;;;23.70;68.00;;;;;;5066968;28;20059;-59
2022/06/17 10:50:36;;;;;;;2.73;1.43;;;23.80;69.00;;;;;;5060007;28;20135;-60
2022/06/17 10:53:37;;;;;;;1.50;1.27;;;23.80;66.20;;;;;;5060184;28;20170;-61
2022/06/17 10:56:09;;;;;;;2.78;1.27;;;23.90;69.00;;;;;;5046744;28;20061;-61
2022/06/17 10:58:35;;;;;;;4.55;1.80;;;24.20;65.20;;;;;;5069422;28;20497;-60
2022/06/17 11:01:00;;;;;;;7.47;1.40;;;24.20;65.00;;;;;;5062964;28;20036;-61
2022/06/17 11:03:34;;;;;;;2.97;1.20;;;24.20;66.30;;;;;;5048731;28;20094;-60
2022/06/17 11:06:06;;;;;;;4.68;1.50;;;24.20;67.30;;;;;;5062691;28;20045;-60
2022/06/17 11:08:54;;;;;;;2.35;1.38;;;24.30;68.10;;;;;;5051808;28;20043;-60
2022/06/17 11:14:29;;;;;;;2.60;1.20;;;24.40;65.40;;;;;;5062156;28;20048;-60
2022/06/17 11:16:55;;;;;;;1.70;1.17;;;24.60;63.40;;;;;;5066886;28;20063;-60
2022/06/17 11:19:24;;;;;;;1.25;1.10;;;24.80;65.70;;;;;;5055791;28;20416;-60
2022/06/17 11:22:00;;;;;;;5.43;1.40;;;25.00;68.60;;;;;;5047899;28;20103;-60
2022/06/17 11:24:27;;;;;;;3.08;1.02;;;25.00;60.90;;;;;;5047708;28;20045;-60
2022/06/17 11:27:07;;;;;;;4.75;1.30;;;25.10;62.90;;;;;;5059499;28;20056;-60
2022/06/17 11:29:45;;;;;;;1.55;0.90;;;25.10;62.70;;;;;;5067741;28;20048;-60
2022/06/17 11:32:25;;;;;;;2.03;1.33;;;25.10;59.10;;;;;;5049567;28;20045;-60
2022/06/17 11:34:59;;;;;;;1.77;1.20;;;24.90;60.20;;;;;;5057317;28;20155;-59
2022/06/17 11:37:35;;;;;;;2.75;1.10;;;24.80;59.50;;;;;;5059472;28;20043;-60
2022/06/17 11:40:20;;;;;;;2.63;1.00;;;24.60;57.60;;;;;;5059140;28;20103;-60
2022/06/17 11:43:02;;;;;;;1.00;0.80;;;24.60;60.20;;;;;;5066422;28;20071;-59
2022/06/17 11:45:29;;;;;;;1.83;0.80;;;24.50;57.40;;;;;;5067412;28;20032;-60
2022/06/17 11:47:59;;;;;;;1.77;1.10;;;24.30;58.00;;;;;;5059604;28;20049;-60
2022/06/17 11:50:34;;;;;;;4.85;1.15;;;24.40;60.00;;;;;;5048047;28;20049;-60
2022/06/17 11:53:20;;;;;;;7.93;1.23;;;24.40;60.90;;;;;;5061040;28;20040;-60
2022/06/17 11:55:48;;;;;;;2.45;1.45;;;24.30;64.80;;;;;;5066223;28;20037;-61
2022/06/17 11:58:17;;;;;;;3.80;1.30;;;24.30;65.10;;;;;;5058757;28;20052;-60
2022/06/17 12:00:51;;;;;;;1.90;1.00;;;24.20;67.10;;;;;;5060109;28;20048;-61
2022/06/17 12:03:39;;;;;;;4.53;1.25;;;24.30;63.40;;;;;;5055034;28;20037;-57
2022/06/17 12:06:16;;;;;;;7.10;2.20;;;24.30;63.30;;;;;;5045192;28;20052;-61
2022/06/17 12:08:50;;;;;;;3.25;1.40;;;24.40;66.00;;;;;;5045496;28;20055;-60
2022/06/17 12:11:28;;;;;;;3.83;1.15;;;24.70;67.20;;;;;;5046640;28;20470;-59
2022/06/17 12:13:59;;;;;;;1.95;0.85;;;24.90;59.00;;;;;;5048321;28;20045;-60
2022/06/17 12:16:39;;;;;;;3.10;0.90;;;25.10;56.90;;;;;;5047461;28;20053;-60
2022/06/17 12:19:11;;;;;;;1.88;0.88;;;25.10;57.30;;;;;;5068248;28;20044;-60
2022/06/17 12:21:54;;;;;;;1.05;0.68;;;25.10;55.80;;;;;;5066102;28;20048;-60
2022/06/17 12:24:48;;;;;;;7.30;0.90;;;25.10;54.40;;;;;;5047321;28;20047;-60
2022/06/17 12:27:41;;;;;;;3.35;1.10;;;25.10;54.80;;;;;;5053531;28;20087;-59
2022/06/17 12:30:45;;;;;;;1.00;0.60;;;25.10;56.00;;;;;;5056298;28;20049;-60
2022/06/17 12:33:23;;;;;;;2.40;1.10;;;25.30;56.70;;;;;;5060666;28;20052;-60
2022/06/17 12:36:08;;;;;;;1.63;1.00;;;25.50;54.80;;;;;;5066868;28;20040;-60
2022/06/17 12:38:52;;;;;;;1.95;0.88;;;25.40;56.90;;;;;;5051542;28;20126;-60
2022/06/17 12:41:27;;;;;;;2.35;0.98;;;25.30;56.10;;;;;;5047229;28;20044;-60
2022/06/17 12:44:02;;;;;;;2.80;1.08;;;25.40;56.90;;;;;;5064324;28;20548;-60
2022/06/17 12:46:46;;;;;;;3.67;1.23;;;25.30;56.60;;;;;;5066988;28;20052;-61
2022/06/17 12:55:33;;;;;;;3.08;1.00;;;24.90;58.50;;;;;;5062083;28;20080;-60
2022/06/17 12:58:11;;;;;;;1.92;1.27;;;24.90;58.90;;;;;;5054686;28;20067;-61
2022/06/17 13:00:36;;;;;;;3.45;1.27;;;24.90;59.90;;;;;;5054403;28;20152;-61
2022/06/17 13:03:28;;;;;;;4.35;1.02;;;24.90;60.60;;;;;;5057711;28;20048;-60
2022/06/17 13:05:58;;;;;;;1.95;1.40;;;24.80;59.80;;;;;;5046633;28;20443;-60
2022/06/17 13:08:35;;;;;;;2.95;1.25;;;24.70;59.30;;;;;;5056293;28;20056;-60
2022/06/17 13:11:03;;;;;;;4.68;1.48;;;24.60;59.80;;;;;;5066639;28;20079;-60
2022/06/17 13:13:59;;;;;;;1.77;0.98;;;24.60;61.00;;;;;;5057091;28;20500;-61
2022/06/17 13:16:39;;;;;;;3.55;1.50;;;24.60;59.90;;;;;;5046385;28;20091;-60
2022/06/17 13:19:23;;;;;;;2.35;1.42;;;24.60;59.80;;;;;;5060362;28;20055;-60
2022/06/17 13:22:04;;;;;;;2.58;1.10;;;24.50;59.70;;;;;;5066406;28;20123;-60
2022/06/17 13:24:58;;;;;;;3.60;1.15;;;24.50;59.20;;;;;;5056993;28;20075;-61
2022/06/17 13:27:36;;;;;;;2.20;1.30;;;24.60;57.60;;;;;;5062809;28;20052;-60
2022/06/17 13:30:23;;;;;;;2.20;0.95;;;24.60;58.30;;;;;;5061408;28;20504;-60
2022/06/17 13:33:24;;;;;;;1.40;1.00;;;24.70;57.60;;;;;;5062034;28;20497;-60
2022/06/17 13:36:13;;;;;;;2.28;0.85;;;25.00;60.50;;;;;;5046696;28;20505;-60
2022/06/17 13:39:05;;;;;;;1.20;0.93;;;25.20;61.00;;;;;;5054754;28;20048;-61
2022/06/17 13:42:07;;;;;;;1.02;0.90;;;25.30;57.70;;;;;;5063339;28;20044;-60
2022/06/17 13:44:54;;;;;;;0.90;0.75;;;25.50;57.20;;;;;;5053181;28;20742;-61
2022/06/17 13:47:39;;;;;;;2.13;1.08;;;25.70;56.30;;;;;;5050685;28;20037;-60
2022/06/17 13:50:26;;;;;;;1.52;0.90;;;25.90;56.00;;;;;;5068390;28;20508;-59
2022/06/17 13:53:04;;;;;;;1.23;0.90;;;26.10;55.90;;;;;;5059222;28;20128;-60
2022/06/17 13:55:58;;;;;;;1.90;0.93;;;26.30;55.80;;;;;;5056598;28;20040;-60
2022/06/17 13:58:53;;;;;;;1.77;0.80;;;26.40;56.90;;;;;;5069270;28;20668;-61
2022/06/17 14:01:18;;;;;;;1.30;0.88;;;26.50;52.40;;;;;;5057823;28;20064;-60
2022/06/17 14:03:59;;;;;;;10.85;0.93;;;26.50;51.90;;;;;;5051762;28;20068;-60
2022/06/17 14:06:26;;;;;;;1.80;0.43;;;26.50;51.30;;;;;;5049885;28;20045;-61
2022/06/17 14:08:58;;;;;;;1.00;0.60;;;26.30;51.30;;;;;;5055499;28;20052;-60
2022/06/17 14:11:39;;;;;;;5.38;0.70;;;26.30;50.60;;;;;;5066978;28;20037;-60